createdAt,value
2023-06-23T00:02:18.803Z,16.45
2023-06-23T00:04:45.669Z,16.35
2023-06-23T00:07:12.415Z,16.13
2023-06-23T00:09:39.266Z,16.14
2023-06-23T00:12:09.370Z,16.17
2023-06-23T00:14:36.251Z,16.11
2023-06-23T00:17:03.972Z,16.25
2023-06-23T00:19:33.108Z,16.04
2023-06-23T00:21:59.977Z,16.02
2023-06-23T00:24:28.298Z,16.07
2023-06-23T00:26:55.031Z,16.04
2023-06-23T00:29:22.008Z,16.03
2023-06-23T00:31:50.864Z,15.96
2023-06-23T00:34:17.791Z,15.71
2023-06-23T00:36:44.468Z,15.54
2023-06-23T00:39:11.184Z,15.58
2023-06-23T00:41:37.898Z,15.52
2023-06-23T00:44:08.394Z,15.33
2023-06-23T00:46:35.518Z,15.27
2023-06-23T00:49:03.005Z,15.36
2023-06-23T00:51:30.898Z,15.40
2023-06-23T00:53:59.547Z,15.26
2023-06-23T00:56:26.618Z,15.15
2023-06-23T00:58:55.505Z,15.04
2023-06-23T01:01:22.241Z,14.97
2023-06-23T01:03:49.489Z,15.03
2023-06-23T01:06:38.830Z,14.93
2023-06-23T01:09:22.002Z,14.99
2023-06-23T01:12:04.250Z,15.00
2023-06-23T01:14:51.551Z,15.02
2023-06-23T01:17:26.067Z,15.07
2023-06-23T01:20:19.511Z,14.97
2023-06-23T01:23:04.346Z,14.84
2023-06-23T01:25:55.640Z,14.85
2023-06-23T01:28:40.447Z,14.93
2023-06-23T01:31:10.570Z,15.02
2023-06-23T01:33:44.767Z,14.76
2023-06-23T01:36:16.000Z,14.73
2023-06-23T01:38:48.611Z,14.56
2023-06-23T01:41:22.747Z,14.53
2023-06-23T01:43:54.371Z,14.69
2023-06-23T01:46:27.266Z,14.55
2023-06-23T01:48:57.223Z,14.50
2023-06-23T01:51:28.149Z,14.24
2023-06-23T01:53:56.874Z,14.32
2023-06-23T01:56:26.989Z,14.38
2023-06-23T01:58:57.144Z,14.26
2023-06-23T02:01:25.064Z,14.46
2023-06-23T02:03:53.628Z,14.32
2023-06-23T02:06:21.409Z,14.47
2023-06-23T02:08:50.406Z,14.69
2023-06-23T02:11:18.397Z,14.61
2023-06-23T02:13:46.763Z,14.52
2023-06-23T02:16:14.597Z,14.34
2023-06-23T02:18:42.630Z,14.39
2023-06-23T02:21:13.099Z,14.39
2023-06-23T02:23:40.537Z,14.37
2023-06-23T02:26:08.764Z,14.35
2023-06-23T02:28:36.938Z,14.39
2023-06-23T02:31:07.090Z,14.41
2023-06-23T02:33:33.911Z,14.37
2023-06-23T02:36:03.630Z,14.37
2023-06-23T02:38:31.790Z,14.32
2023-06-23T02:41:01.005Z,14.30
2023-06-23T02:43:36.830Z,14.49
2023-06-23T02:46:07.731Z,14.57
2023-06-23T02:48:41.058Z,14.61
2023-06-23T02:51:13.449Z,14.73
2023-06-23T02:53:49.630Z,14.79
2023-06-23T02:56:23.413Z,14.79
2023-06-23T02:58:55.034Z,14.70
2023-06-23T03:01:23.699Z,14.60
2023-06-23T03:03:50.893Z,14.64
2023-06-23T03:06:22.034Z,14.69
2023-06-23T03:08:49.064Z,14.64
2023-06-23T03:11:22.357Z,14.61
2023-06-23T03:13:50.202Z,14.70
2023-06-23T03:16:23.511Z,14.71
2023-06-23T03:18:54.751Z,14.68
2023-06-23T03:21:24.182Z,14.60
2023-06-23T03:23:56.576Z,14.61
2023-06-23T03:26:24.407Z,14.63
2023-06-23T03:28:59.190Z,14.71
2023-06-23T03:31:27.678Z,14.88
2023-06-23T03:33:57.394Z,15.10
2023-06-23T03:36:26.280Z,15.16
2023-06-23T03:39:02.755Z,15.23
2023-06-23T03:41:31.174Z,15.39
2023-06-23T03:44:02.389Z,15.45
2023-06-23T03:46:53.991Z,15.35
2023-06-23T03:49:27.767Z,15.26
2023-06-23T03:51:58.888Z,15.35
2023-06-23T03:54:27.273Z,15.47
2023-06-23T03:56:56.332Z,15.51
2023-06-23T03:59:26.663Z,15.50
2023-06-23T04:01:55.554Z,15.52
2023-06-23T04:04:26.563Z,15.59
2023-06-23T04:06:54.420Z,15.68
2023-06-23T04:09:22.043Z,15.83
2023-06-23T04:11:51.456Z,15.94
2023-06-23T04:14:20.370Z,16.16
2023-06-23T04:16:50.997Z,16.45
2023-06-23T04:19:18.983Z,16.69
2023-06-23T04:21:46.822Z,16.69
2023-06-23T04:24:15.571Z,16.66
2023-06-23T04:26:45.259Z,16.59
2023-06-23T04:29:13.797Z,16.63
2023-06-23T04:31:42.212Z,16.65
2023-06-23T04:34:08.953Z,16.62
2023-06-23T04:36:50.077Z,16.52
2023-06-23T04:39:28.979Z,16.57
2023-06-23T04:42:05.515Z,16.57
2023-06-23T04:44:42.377Z,16.77
2023-06-23T04:47:11.836Z,16.80
2023-06-23T04:49:42.110Z,16.79
2023-06-23T04:52:10.695Z,16.64
2023-06-23T04:54:42.812Z,16.28
2023-06-23T04:57:17.831Z,16.48
2023-06-23T04:59:52.893Z,16.65
2023-06-23T05:02:21.915Z,16.60
2023-06-23T05:04:50.929Z,16.95
2023-06-23T05:07:19.468Z,16.98
2023-06-23T05:09:50.061Z,17.04
2023-06-23T05:12:19.708Z,17.07
2023-06-23T05:14:49.041Z,17.22
2023-06-23T05:17:17.476Z,17.34
2023-06-23T05:19:47.309Z,17.46
2023-06-23T05:22:18.664Z,17.46
2023-06-23T05:24:53.861Z,17.24
2023-06-23T05:27:26.007Z,17.44
2023-06-23T05:29:57.270Z,17.48
2023-06-23T05:32:26.067Z,17.63
2023-06-23T05:34:59.431Z,17.89
2023-06-23T05:37:29.076Z,17.70
2023-06-23T05:39:59.174Z,17.32
2023-06-23T05:42:27.140Z,17.01
2023-06-23T05:44:54.830Z,17.24
2023-06-23T05:47:26.335Z,17.16
2023-06-23T05:49:56.696Z,17.11
2023-06-23T05:52:24.192Z,17.09
2023-06-23T05:54:55.955Z,17.17
2023-06-23T05:57:28.813Z,17.19
2023-06-23T06:00:14.897Z,17.04
2023-06-23T06:02:47.350Z,16.81
2023-06-23T06:05:18.849Z,16.86
2023-06-23T06:07:48.100Z,16.97
2023-06-23T06:10:16.623Z,16.92
2023-06-23T06:12:49.518Z,17.11
2023-06-23T06:15:18.539Z,17.35
2023-06-23T06:17:46.555Z,17.32
2023-06-23T06:20:16.191Z,17.63
2023-06-23T06:22:45.652Z,17.99
2023-06-23T06:25:14.678Z,18.48
2023-06-23T06:27:45.765Z,18.17
2023-06-23T06:30:13.517Z,18.13
2023-06-23T06:32:42.376Z,18.53
2023-06-23T06:35:11.874Z,18.98
2023-06-23T06:37:43.161Z,19.97
2023-06-23T06:40:12.873Z,19.60
2023-06-23T06:42:40.028Z,19.14
2023-06-23T06:45:07.235Z,19.04
2023-06-23T06:47:41.843Z,18.65
2023-06-23T06:50:10.948Z,18.58
2023-06-23T06:52:45.569Z,18.96
2023-06-23T06:55:20.536Z,18.45
2023-06-23T06:57:48.893Z,18.74
2023-06-23T07:00:19.721Z,19.03
2023-06-23T07:02:47.270Z,19.15
2023-06-23T07:05:14.943Z,18.44
2023-06-23T07:07:41.800Z,18.65
2023-06-23T07:10:08.835Z,18.60
2023-06-23T07:12:35.657Z,18.48
2023-06-23T07:15:03.564Z,18.45
2023-06-23T07:17:30.303Z,18.47
2023-06-23T07:19:57.054Z,18.36
2023-06-23T07:22:23.866Z,18.60
2023-06-23T07:24:51.216Z,17.93
2023-06-23T07:27:19.103Z,17.98
2023-06-23T07:29:45.819Z,18.06
2023-06-23T07:32:15.632Z,17.89
2023-06-23T07:34:42.830Z,18.06
2023-06-23T07:37:10.273Z,17.91
2023-06-23T07:39:38.160Z,18.29
2023-06-23T07:42:05.610Z,18.24
2023-06-23T07:44:35.238Z,18.22
2023-06-23T07:47:02.194Z,18.02
2023-06-23T07:49:29.010Z,17.94
2023-06-23T07:52:01.147Z,18.20
2023-06-23T07:54:29.629Z,18.23
2023-06-23T07:57:00.469Z,17.93
2023-06-23T07:59:27.354Z,17.86
2023-06-23T08:01:55.042Z,17.69
2023-06-23T08:04:22.756Z,17.97
2023-06-23T08:06:49.763Z,18.11
2023-06-23T08:09:16.958Z,17.86
2023-06-23T08:11:43.746Z,17.72
2023-06-23T08:14:11.728Z,18.03
2023-06-23T08:16:38.778Z,18.37
2023-06-23T08:19:05.595Z,18.20
2023-06-23T08:21:32.487Z,18.44
2023-06-23T08:23:59.352Z,18.17
2023-06-23T08:26:26.072Z,17.95
2023-06-23T08:28:52.761Z,17.83
2023-06-23T08:31:19.599Z,17.41
2023-06-23T08:33:46.353Z,17.61
2023-06-23T08:36:13.223Z,17.55
2023-06-23T08:38:39.967Z,17.97
2023-06-23T08:41:07.990Z,17.88
2023-06-23T08:43:36.645Z,17.80
2023-06-23T08:46:06.413Z,17.76
2023-06-23T08:48:33.990Z,17.63
2023-06-23T08:51:03.359Z,17.30
2023-06-23T08:53:30.598Z,17.37
2023-06-23T08:55:57.448Z,17.17
2023-06-23T08:58:25.726Z,17.11
2023-06-23T09:00:54.165Z,17.31
2023-06-23T09:03:21.625Z,17.49
2023-06-23T09:05:48.562Z,17.57
2023-06-23T09:08:15.637Z,17.24
2023-06-23T09:10:42.463Z,17.48
2023-06-23T09:13:09.090Z,17.44
2023-06-23T09:15:47.810Z,17.48
2023-06-23T09:18:22.999Z,17.02
2023-06-23T09:20:52.168Z,17.05
2023-06-23T09:23:23.700Z,17.06
2023-06-23T09:25:51.300Z,17.22
2023-06-23T09:28:41.022Z,16.94
2023-06-23T09:31:12.787Z,16.91
2023-06-23T09:33:52.700Z,17.10
2023-06-23T09:36:20.088Z,16.87
2023-06-23T09:38:47.085Z,17.25
2023-06-23T09:41:16.125Z,17.25
2023-06-23T09:43:44.067Z,17.42
2023-06-23T09:46:13.320Z,17.34
2023-06-23T09:48:41.473Z,17.54
2023-06-23T09:51:08.165Z,17.78
2023-06-23T09:53:42.138Z,17.47
2023-06-23T09:56:16.068Z,17.78
2023-06-23T09:58:44.077Z,18.05
2023-06-23T10:01:17.091Z,17.93
2023-06-23T10:03:48.082Z,18.17
2023-06-23T10:06:38.663Z,18.29
2023-06-23T10:09:11.120Z,18.37
2023-06-23T10:11:40.114Z,18.35
2023-06-23T10:14:12.192Z,18.25
2023-06-23T10:16:54.720Z,18.36
2023-06-23T10:19:21.500Z,18.43
2023-06-23T10:21:48.875Z,18.70
2023-06-23T10:24:19.324Z,18.77
2023-06-23T10:26:48.225Z,19.08
2023-06-23T10:29:16.139Z,19.27
2023-06-23T10:31:44.121Z,19.39
2023-06-23T10:34:17.315Z,19.46
2023-06-23T10:36:51.550Z,19.72
2023-06-23T10:39:20.225Z,19.44
2023-06-23T10:41:49.049Z,19.63
2023-06-23T10:44:16.730Z,19.75
2023-06-23T10:46:43.821Z,19.79
2023-06-23T10:49:11.089Z,20.47
2023-06-23T10:51:38.772Z,20.67
2023-06-23T10:54:08.909Z,20.59
2023-06-23T10:56:38.161Z,20.68
2023-06-23T10:59:28.961Z,20.93
2023-06-23T11:02:01.564Z,20.73
2023-06-23T11:04:29.785Z,20.62
2023-06-23T11:07:11.132Z,20.20
2023-06-23T11:09:59.983Z,20.93
2023-06-23T11:12:35.130Z,21.29
2023-06-23T11:15:21.258Z,21.72
2023-06-23T11:18:02.632Z,21.84
2023-06-23T11:20:31.695Z,21.02
2023-06-23T11:23:04.830Z,20.73
2023-06-23T11:25:41.031Z,20.27
2023-06-23T11:28:41.401Z,20.04
2023-06-23T11:31:20.939Z,20.40
2023-06-23T11:33:56.885Z,21.07
2023-06-23T11:36:28.524Z,21.17
2023-06-23T11:38:59.321Z,20.91
2023-06-23T11:41:31.318Z,20.88
2023-06-23T11:44:04.547Z,21.04
2023-06-23T11:46:35.537Z,21.01
2023-06-23T11:49:12.917Z,20.71
2023-06-23T11:51:40.290Z,21.42
2023-06-23T11:54:08.219Z,21.19
2023-06-23T11:56:35.094Z,20.93
2023-06-23T11:59:03.866Z,21.46
2023-06-23T12:01:30.570Z,21.99
2023-06-23T12:03:57.503Z,21.12
2023-06-23T12:06:25.734Z,21.50
2023-06-23T12:08:53.826Z,20.98
2023-06-23T12:11:22.580Z,20.99
2023-06-23T12:13:53.133Z,21.11
2023-06-23T12:16:21.537Z,21.92
2023-06-23T12:18:50.078Z,21.80
2023-06-23T12:21:18.294Z,21.40
2023-06-23T12:23:45.374Z,21.53
2023-06-23T12:26:12.378Z,21.30
2023-06-23T12:28:39.075Z,21.55
2023-06-23T12:31:05.929Z,21.07
2023-06-23T12:33:35.776Z,21.13
2023-06-23T12:36:07.366Z,21.00
2023-06-23T12:38:39.165Z,20.84
2023-06-23T12:41:26.018Z,21.32
2023-06-23T12:43:58.400Z,21.94
2023-06-23T12:46:26.452Z,21.65
2023-06-23T12:48:55.368Z,21.64
2023-06-23T12:51:35.783Z,21.29
2023-06-23T12:54:02.924Z,21.64
2023-06-23T12:56:29.935Z,22.09
2023-06-23T12:58:56.726Z,21.73
2023-06-23T13:01:24.764Z,21.59
2023-06-23T13:03:52.313Z,21.78
2023-06-23T13:06:19.199Z,21.76
2023-06-23T13:08:45.986Z,21.85
2023-06-23T13:11:12.658Z,21.41
2023-06-23T13:13:39.363Z,21.53
2023-06-23T13:16:06.173Z,21.34
2023-06-23T13:18:32.896Z,21.43
2023-06-23T13:20:59.652Z,21.59
2023-06-23T13:23:26.294Z,21.21
2023-06-23T13:25:52.976Z,20.86
2023-06-23T13:28:19.789Z,20.83
2023-06-23T13:30:46.495Z,20.91
2023-06-23T13:33:15.545Z,20.89
2023-06-23T13:35:42.275Z,20.97
2023-06-23T13:38:09.042Z,20.41
2023-06-23T13:40:36.884Z,20.25
2023-06-23T13:43:04.115Z,20.69
2023-06-23T13:45:31.062Z,20.82
2023-06-23T13:47:57.927Z,21.16
2023-06-23T13:50:24.756Z,21.03
2023-06-23T13:52:51.419Z,21.14
2023-06-23T13:55:18.171Z,20.73
2023-06-23T13:57:46.253Z,21.42
2023-06-23T14:00:13.857Z,21.54
2023-06-23T14:02:40.698Z,21.74
2023-06-23T14:05:07.816Z,22.00
2023-06-23T14:07:36.076Z,21.75
2023-06-23T14:10:06.634Z,21.60
2023-06-23T14:12:33.923Z,21.88
2023-06-23T14:15:00.669Z,21.90
2023-06-23T14:17:27.803Z,21.88
2023-06-23T14:19:54.946Z,21.55
2023-06-23T14:22:21.722Z,21.28
2023-06-23T14:24:48.388Z,20.99
2023-06-23T14:27:15.187Z,21.58
2023-06-23T14:29:41.898Z,20.95
2023-06-23T14:32:08.900Z,21.28
2023-06-23T14:34:35.669Z,21.74
2023-06-23T14:37:04.867Z,21.32
2023-06-23T14:39:32.321Z,21.74
2023-06-23T14:41:59.262Z,21.38
2023-06-23T14:44:27.654Z,20.81
2023-06-23T14:46:57.414Z,20.67
2023-06-23T14:49:24.830Z,20.51
2023-06-23T14:51:52.002Z,20.69
2023-06-23T14:54:18.860Z,20.87
2023-06-23T14:56:46.662Z,20.56
2023-06-23T14:59:14.124Z,20.71
2023-06-23T15:01:40.933Z,21.15
2023-06-23T15:04:07.852Z,20.98
2023-06-23T15:06:34.697Z,21.02
2023-06-23T15:09:01.515Z,21.24
2023-06-23T15:11:28.907Z,21.30
2023-06-23T15:13:55.652Z,21.15
2023-06-23T15:16:22.348Z,20.98
2023-06-23T15:18:49.048Z,21.29
2023-06-23T15:21:15.751Z,20.91
2023-06-23T15:23:42.585Z,21.12
2023-06-23T15:26:12.288Z,21.17
2023-06-23T15:28:47.129Z,21.23
2023-06-23T15:31:14.093Z,21.01
2023-06-23T15:33:40.852Z,20.94
2023-06-23T15:36:10.464Z,20.78
2023-06-23T15:38:44.283Z,21.08
2023-06-23T15:41:13.069Z,21.56
2023-06-23T15:43:39.915Z,21.43
2023-06-23T15:46:08.552Z,20.91
2023-06-23T15:48:37.016Z,21.07
2023-06-23T15:51:07.573Z,20.77
2023-06-23T15:53:35.145Z,20.97
2023-06-23T15:56:01.965Z,20.75
2023-06-23T15:58:28.710Z,20.64
2023-06-23T16:00:56.683Z,20.73
2023-06-23T16:03:24.268Z,21.01
2023-06-23T16:05:52.784Z,20.70
2023-06-23T16:08:20.882Z,20.17
2023-06-23T16:10:48.796Z,20.50
2023-06-23T16:13:17.364Z,20.65
2023-06-23T16:15:46.424Z,21.01
2023-06-23T16:18:17.063Z,20.91
2023-06-23T16:20:45.289Z,20.93
2023-06-23T16:23:13.382Z,21.02
2023-06-23T16:25:41.615Z,20.75
2023-06-23T16:28:08.770Z,20.65
2023-06-23T16:30:45.546Z,20.75
2023-06-23T16:33:13.766Z,20.91
2023-06-23T16:35:56.862Z,21.24
2023-06-23T16:38:24.021Z,21.30
2023-06-23T16:40:51.278Z,20.91
2023-06-23T16:43:18.160Z,20.57
2023-06-23T16:45:48.878Z,20.47
2023-06-23T16:48:16.028Z,20.41
2023-06-23T16:50:43.690Z,20.58
2023-06-23T16:53:12.295Z,20.63
2023-06-23T16:55:39.782Z,20.33
2023-06-23T16:58:06.676Z,20.50
2023-06-23T17:00:33.835Z,20.59
2023-06-23T17:03:01.115Z,20.58
2023-06-23T17:05:27.992Z,20.12
2023-06-23T17:07:54.689Z,20.25
2023-06-23T17:10:36.828Z,20.29
2023-06-23T17:13:03.856Z,19.88
2023-06-23T17:15:30.860Z,19.97
2023-06-23T17:18:00.459Z,20.41
2023-06-23T17:20:27.197Z,20.45
2023-06-23T17:23:02.088Z,20.59
2023-06-23T17:25:29.621Z,20.77
2023-06-23T17:27:56.336Z,20.60
2023-06-23T17:30:23.861Z,20.66
2023-06-23T17:32:54.946Z,20.60
2023-06-23T17:35:23.662Z,20.54
2023-06-23T17:37:51.071Z,20.46
2023-06-23T17:40:27.002Z,20.62
2023-06-23T17:42:58.010Z,20.74
2023-06-23T17:45:30.488Z,20.64
2023-06-23T17:48:01.285Z,20.48
2023-06-23T17:50:28.834Z,20.54
2023-06-23T17:52:57.482Z,20.49
2023-06-23T17:55:27.596Z,20.55
2023-06-23T17:57:54.293Z,20.20
2023-06-23T18:00:31.582Z,20.28
2023-06-23T18:03:00.711Z,20.38
2023-06-23T18:05:27.704Z,20.06
2023-06-23T18:07:55.036Z,20.41
2023-06-23T18:10:25.624Z,20.49
2023-06-23T18:12:53.618Z,20.56
2023-06-23T18:15:22.041Z,20.34
2023-06-23T18:17:54.053Z,20.22
2023-06-23T18:20:24.330Z,20.28
2023-06-23T18:22:51.219Z,20.31
2023-06-23T18:25:22.047Z,20.66
2023-06-23T18:27:49.029Z,20.53
2023-06-23T18:30:16.566Z,20.81
2023-06-23T18:32:43.326Z,20.15
2023-06-23T18:35:13.595Z,20.28
2023-06-23T18:37:44.830Z,20.20
2023-06-23T18:40:13.290Z,20.23
2023-06-23T18:42:43.986Z,20.25
2023-06-23T18:45:14.425Z,20.04
2023-06-23T18:47:41.492Z,20.37
2023-06-23T18:50:09.326Z,20.27
2023-06-23T18:52:36.193Z,20.27
2023-06-23T18:55:03.870Z,20.30
2023-06-23T18:57:34.478Z,20.28
2023-06-23T19:00:04.774Z,20.14
2023-06-23T19:02:31.864Z,20.25
2023-06-23T19:04:58.641Z,20.26
2023-06-23T19:07:25.542Z,20.18
2023-06-23T19:09:52.406Z,20.23
2023-06-23T19:12:19.199Z,20.13
2023-06-23T19:14:46.578Z,20.02
2023-06-23T19:17:13.992Z,20.06
2023-06-23T19:19:41.533Z,19.92
2023-06-23T19:22:08.971Z,19.98
2023-06-23T19:24:36.474Z,19.75
2023-06-23T19:27:04.866Z,19.67
2023-06-23T19:29:31.737Z,19.38
2023-06-23T19:32:00.088Z,19.44
2023-06-23T19:34:32.438Z,19.31
2023-06-23T19:37:00.402Z,19.23
2023-06-23T19:39:28.202Z,19.44
2023-06-23T19:41:55.421Z,19.20
2023-06-23T19:44:22.119Z,18.91
2023-06-23T19:46:49.028Z,19.12
2023-06-23T19:49:15.761Z,18.91
2023-06-23T19:51:42.457Z,19.05
2023-06-23T19:54:09.132Z,19.09
2023-06-23T19:56:35.880Z,19.25
2023-06-23T19:59:02.607Z,19.00
2023-06-23T20:01:29.412Z,19.11
2023-06-23T20:03:56.222Z,19.07
2023-06-23T20:06:23.449Z,19.20
2023-06-23T20:08:50.301Z,19.11
2023-06-23T20:11:17.825Z,19.05
2023-06-23T20:13:44.666Z,19.06
2023-06-23T20:16:11.824Z,19.27
2023-06-23T20:18:39.347Z,19.37
2023-06-23T20:21:06.042Z,19.36
2023-06-23T20:23:34.442Z,19.36
2023-06-23T20:26:01.936Z,19.39
2023-06-23T20:28:28.745Z,19.44
2023-06-23T20:30:55.436Z,19.42
2023-06-23T20:33:22.163Z,19.29
2023-06-23T20:35:49.583Z,19.28
2023-06-23T20:38:16.622Z,19.28
2023-06-23T20:40:46.543Z,19.35
2023-06-23T20:43:13.244Z,19.42
2023-06-23T20:45:40.312Z,19.12
2023-06-23T20:48:08.260Z,19.20
2023-06-23T20:50:35.769Z,19.07
2023-06-23T20:53:02.770Z,19.10
2023-06-23T20:55:29.596Z,19.32
2023-06-23T20:57:56.745Z,19.03
2023-06-23T21:00:23.717Z,18.91
2023-06-23T21:02:50.623Z,18.92
2023-06-23T21:05:17.423Z,19.01
2023-06-23T21:07:47.434Z,19.06
2023-06-23T21:10:24.023Z,18.95
2023-06-23T21:12:55.118Z,18.89
2023-06-23T21:15:25.673Z,18.91
2023-06-23T21:17:56.189Z,19.07
2023-06-23T21:20:24.542Z,19.06
2023-06-23T21:22:51.797Z,18.92
2023-06-23T21:25:19.832Z,19.06
2023-06-23T21:27:47.911Z,18.97
2023-06-23T21:30:15.224Z,18.98
2023-06-23T21:32:42.292Z,18.97
2023-06-23T21:35:09.462Z,18.89
2023-06-23T21:37:36.250Z,18.97
2023-06-23T21:40:03.298Z,18.79
2023-06-23T21:42:30.188Z,18.71
2023-06-23T21:44:56.850Z,18.76
2023-06-23T21:47:23.558Z,18.61
2023-06-23T21:49:50.324Z,18.82
2023-06-23T21:52:16.978Z,18.92
2023-06-23T21:54:45.619Z,18.77
2023-06-23T21:57:12.378Z,18.58
2023-06-23T21:59:39.130Z,18.67
2023-06-23T22:02:06.221Z,18.58
2023-06-23T22:04:33.056Z,18.69
2023-06-23T22:06:59.826Z,18.69
2023-06-23T22:09:26.486Z,18.81
2023-06-23T22:11:54.844Z,18.48
2023-06-23T22:14:26.278Z,18.47
2023-06-23T22:16:56.548Z,18.35
2023-06-23T22:19:23.945Z,18.39
2023-06-23T22:21:51.069Z,18.24
2023-06-23T22:24:18.206Z,18.43
2023-06-23T22:26:45.104Z,18.45
2023-06-23T22:29:11.946Z,18.22
2023-06-23T22:31:39.868Z,18.38
2023-06-23T22:34:06.609Z,18.48
2023-06-23T22:36:36.649Z,18.33
2023-06-23T22:39:06.956Z,18.34
2023-06-23T22:41:33.893Z,18.48
2023-06-23T22:44:00.686Z,18.48
2023-06-23T22:46:27.440Z,18.49
2023-06-23T22:48:57.298Z,18.60
2023-06-23T22:51:24.656Z,18.66
2023-06-23T22:53:51.364Z,18.57
2023-06-23T22:56:20.001Z,18.65
2023-06-23T22:58:46.801Z,18.65
2023-06-23T23:01:13.498Z,18.71
2023-06-23T23:03:40.395Z,18.70
2023-06-23T23:06:07.196Z,18.77
2023-06-23T23:08:34.067Z,18.82
2023-06-23T23:11:00.792Z,18.76
2023-06-23T23:13:27.761Z,18.85
2023-06-23T23:15:54.433Z,18.79
2023-06-23T23:18:21.089Z,18.77
2023-06-23T23:20:47.843Z,18.85
2023-06-23T23:23:14.576Z,18.88
2023-06-23T23:28:28.426Z,18.74
2023-06-23T23:30:56.649Z,18.72
2023-06-23T23:33:24.440Z,18.76
2023-06-23T23:35:51.120Z,18.73
2023-06-23T23:38:17.804Z,18.71
2023-06-23T23:40:44.579Z,18.63
2023-06-23T23:43:11.272Z,18.55
2023-06-23T23:45:37.932Z,18.43
2023-06-23T23:48:04.998Z,18.44
2023-06-23T23:50:31.740Z,18.46
2023-06-23T23:53:00.236Z,18.38
2023-06-23T23:55:27.040Z,18.30
2023-06-23T23:57:53.732Z,18.07
